createdAt,value
2019-02-19T00:00:03.538Z,17.33
2019-02-19T00:01:03.233Z,16.17
2019-02-19T00:02:03.415Z,17.72
2019-02-19T00:03:02.678Z,17.26
2019-02-19T00:04:03.156Z,17.48
2019-02-19T00:05:03.664Z,17.78
2019-02-19T00:06:03.312Z,17.19
2019-02-19T00:07:02.886Z,17.75
2019-02-19T00:08:03.169Z,19.32
2019-02-19T00:09:03.321Z,17.77
2019-02-19T00:10:02.837Z,18.19
2019-02-19T00:11:02.628Z,18.44
2019-02-19T00:12:03.335Z,17.24
2019-02-19T00:13:02.459Z,16.53
2019-02-19T00:14:03.004Z,17.58
2019-02-19T00:15:08.760Z,17.31
2019-02-19T00:16:02.850Z,17.41
2019-02-19T00:17:03.241Z,16.85
2019-02-19T00:18:03.535Z,17.45
2019-02-19T00:19:03.066Z,16.46
2019-02-19T00:20:03.407Z,16.46
2019-02-19T00:21:02.971Z,18.21
2019-02-19T00:22:03.249Z,18.21
2019-02-19T00:23:03.664Z,17.09
2019-02-19T00:24:02.925Z,16.68
2019-02-19T00:25:03.462Z,17.02
2019-02-19T00:26:02.780Z,17.84
2019-02-19T00:27:03.652Z,18.16
2019-02-19T00:28:03.682Z,17.15
2019-02-19T00:29:03.037Z,16.95
2019-02-19T00:30:02.940Z,17.64
2019-02-19T00:31:03.547Z,17.62
2019-02-19T00:32:03.675Z,17.85
2019-02-19T00:33:02.730Z,17.94
2019-02-19T00:34:02.991Z,18.76
2019-02-19T00:35:03.587Z,18.06
2019-02-19T00:36:05.004Z,18.12
2019-02-19T00:37:03.022Z,17.59
2019-02-19T00:38:03.628Z,17.25
2019-02-19T00:39:02.751Z,17.54
2019-02-19T00:40:02.972Z,16.46
2019-02-19T00:41:03.574Z,17.91
2019-02-19T00:42:02.861Z,18.3
2019-02-19T00:43:03.860Z,16.31
2019-02-19T00:44:03.065Z,17.04
2019-02-19T00:45:03.546Z,17.13
2019-02-19T00:46:02.973Z,17.82
2019-02-19T00:47:03.539Z,17.71
2019-02-19T00:48:02.876Z,17.12
2019-02-19T00:49:03.010Z,17.82
2019-02-19T00:50:03.706Z,17.78
2019-02-19T00:51:02.875Z,17.22
2019-02-19T00:52:03.634Z,17.03
2019-02-19T00:53:02.790Z,17.55
2019-02-19T00:54:02.966Z,18.01
2019-02-19T00:55:03.148Z,18.33
2019-02-19T00:56:03.442Z,15.62
2019-02-19T00:57:03.682Z,18.66
2019-02-19T00:58:03.388Z,17.61
2019-02-19T00:59:03.713Z,17.08
2019-02-19T01:00:03.360Z,17.14
2019-02-19T01:01:03.639Z,16.92
2019-02-19T01:02:03.105Z,15.98
2019-02-19T01:03:03.516Z,17.09
2019-02-19T01:04:02.745Z,16.92
2019-02-19T01:05:03.480Z,16.83
2019-02-19T01:06:02.840Z,17.64
2019-02-19T01:07:03.648Z,15.97
2019-02-19T01:08:03.261Z,16.18
2019-02-19T01:09:03.777Z,17.95
2019-02-19T01:10:03.520Z,17.95
2019-02-19T01:11:03.858Z,16.37
2019-02-19T01:12:02.878Z,16.2
2019-02-19T01:13:03.686Z,16.2
2019-02-19T01:14:03.011Z,16.41
2019-02-19T01:15:02.723Z,16.41
2019-02-19T01:16:02.945Z,16.21
2019-02-19T01:17:03.722Z,16.79
2019-02-19T01:18:02.790Z,17.5
2019-02-19T01:19:03.619Z,15.72
2019-02-19T01:20:02.880Z,15.79
2019-02-19T01:21:03.625Z,14.91
2019-02-19T01:22:03.062Z,18.08
2019-02-19T01:23:03.522Z,16.16
2019-02-19T01:24:02.899Z,14.36
2019-02-19T01:25:03.918Z,14.98
2019-02-19T01:26:02.789Z,16.65
2019-02-19T01:27:03.373Z,14.52
2019-02-19T01:28:02.814Z,14.12
2019-02-19T01:29:03.385Z,15.12
2019-02-19T01:30:03.779Z,14.49
2019-02-19T01:31:02.841Z,16.48
2019-02-19T01:32:03.332Z,14.61
2019-02-19T01:33:02.955Z,15.54
2019-02-19T01:34:03.379Z,15.06
2019-02-19T01:35:03.668Z,16.77
2019-02-19T01:36:03.267Z,14.98
2019-02-19T01:37:02.953Z,16.06
2019-02-19T01:38:03.142Z,16.12
2019-02-19T01:39:02.750Z,14.11
2019-02-19T01:40:03.396Z,13.34
2019-02-19T01:41:04.148Z,13.77
2019-02-19T01:42:03.120Z,14.87
2019-02-19T01:43:03.404Z,15.13
2019-02-19T01:44:02.812Z,13.96
2019-02-19T01:45:03.621Z,14.55
2019-02-19T01:46:02.742Z,15.29
2019-02-19T01:47:03.069Z,13.08
2019-02-19T01:48:02.715Z,14.93
2019-02-19T01:49:03.126Z,14.76
2019-02-19T01:50:03.628Z,14.89
2019-02-19T01:51:03.008Z,15.3
2019-02-19T01:52:03.344Z,14.74
2019-02-19T01:53:02.796Z,15.6
2019-02-19T01:54:03.606Z,14.02
2019-02-19T01:55:02.762Z,13.99
2019-02-19T01:56:03.319Z,14.99
2019-02-19T01:57:02.755Z,14.48
2019-02-19T01:58:03.045Z,15.54
2019-02-19T01:59:03.402Z,14.06
2019-02-19T02:00:02.636Z,15.39
2019-02-19T02:01:03.330Z,15.39
2019-02-19T02:02:03.625Z,15.25
2019-02-19T02:03:03.231Z,14.63
2019-02-19T02:04:03.342Z,14.63
2019-02-19T02:05:03.152Z,14.37
2019-02-19T02:06:03.500Z,13.64
2019-02-19T02:07:04.673Z,13.64
2019-02-19T02:08:03.431Z,14.48
2019-02-19T02:09:02.896Z,14.46
2019-02-19T02:10:03.387Z,14.62
2019-02-19T02:11:02.888Z,14.38
2019-02-19T02:12:03.369Z,14.28
2019-02-19T02:13:03.035Z,13.56
2019-02-19T02:14:03.107Z,14.34
2019-02-19T02:15:02.777Z,14.06
2019-02-19T02:16:02.713Z,13.25
2019-02-19T02:17:03.615Z,13.54
2019-02-19T02:18:02.754Z,13.64
2019-02-19T02:19:04.176Z,12.47
2019-02-19T02:20:03.169Z,15.05
2019-02-19T02:21:03.339Z,14.67
2019-02-19T02:22:03.006Z,13.36
2019-02-19T02:23:03.582Z,13.99
2019-02-19T02:24:02.838Z,12.91
2019-02-19T02:25:03.400Z,13.61
2019-02-19T02:26:02.970Z,13.09
2019-02-19T02:27:03.116Z,13.15
2019-02-19T02:28:02.750Z,13.39
2019-02-19T02:29:03.180Z,13.2
2019-02-19T02:30:02.797Z,13.21
2019-02-19T02:31:03.252Z,12.05
2019-02-19T02:32:03.760Z,13.93
2019-02-19T02:33:03.102Z,13.75
2019-02-19T02:34:03.534Z,13.84
2019-02-19T02:35:02.971Z,13.66
2019-02-19T02:36:03.601Z,13.63
2019-02-19T02:37:03.526Z,14.21
2019-02-19T02:38:03.446Z,14.04
2019-02-19T02:39:03.058Z,13.88
2019-02-19T02:40:03.191Z,14.25
2019-02-19T02:41:02.810Z,13.29
2019-02-19T02:42:03.034Z,14.08
2019-02-19T02:43:03.683Z,13.49
2019-02-19T02:44:02.949Z,14.15
2019-02-19T02:45:03.384Z,12.55
2019-02-19T02:46:03.588Z,12.71
2019-02-19T02:47:03.308Z,12.71
2019-02-19T02:48:03.558Z,12.59
2019-02-19T02:49:03.049Z,12.24
2019-02-19T02:50:03.594Z,12.24
2019-02-19T02:51:03.048Z,12.86
2019-02-19T02:52:03.292Z,12.86
2019-02-19T02:53:02.820Z,14.33
2019-02-19T02:54:03.451Z,13.97
2019-02-19T02:55:02.992Z,14.49
2019-02-19T02:56:03.202Z,13.72
2019-02-19T02:57:03.052Z,13.32
2019-02-19T02:58:03.200Z,12.21
2019-02-19T02:59:02.903Z,12.63
2019-02-19T03:00:03.678Z,12.3
2019-02-19T03:01:03.572Z,13.06
2019-02-19T03:02:03.195Z,11.81
2019-02-19T03:03:03.695Z,12.62
2019-02-19T03:04:03.101Z,12.61
2019-02-19T03:05:03.430Z,13.02
2019-02-19T03:06:03.599Z,13.87
2019-02-19T03:07:03.320Z,13.57
2019-02-19T03:08:03.852Z,12.34
2019-02-19T03:09:03.164Z,12.54
2019-02-19T03:10:03.861Z,13.22
2019-02-19T03:11:03.029Z,12.74
2019-02-19T03:12:03.605Z,14.26
2019-02-19T03:13:02.866Z,12.29
2019-02-19T03:14:03.475Z,14.47
2019-02-19T03:15:02.814Z,13.99
2019-02-19T03:16:03.314Z,13.04
2019-02-19T03:17:02.967Z,12.01
2019-02-19T03:18:03.445Z,14.1
2019-02-19T03:19:02.763Z,15.05
2019-02-19T03:20:03.656Z,12.3
2019-02-19T03:21:02.997Z,13.01
2019-02-19T03:22:03.658Z,13.56
2019-02-19T03:23:02.870Z,12.32
2019-02-19T03:24:02.828Z,13.07
2019-02-19T03:25:03.781Z,12.36
2019-02-19T03:26:03.049Z,12.75
2019-02-19T03:27:03.494Z,12.78
2019-02-19T03:28:03.193Z,12.44
2019-02-19T03:29:03.598Z,12.61
2019-02-19T03:30:03.359Z,12.98
2019-02-19T03:31:03.570Z,12.65
2019-02-19T03:32:02.910Z,12.91
2019-02-19T03:33:03.500Z,12.83
2019-02-19T03:34:02.750Z,12.34
2019-02-19T03:35:03.530Z,11.91
2019-02-19T03:36:03.020Z,12.39
2019-02-19T03:37:03.405Z,12.01
2019-02-19T03:38:03.656Z,12.01
2019-02-19T03:39:03.562Z,12.44
2019-02-19T03:40:03.088Z,12.44
2019-02-19T03:41:03.638Z,12.44
2019-02-19T03:42:02.861Z,11.74
2019-02-19T03:43:03.466Z,11.94
2019-02-19T03:44:03.761Z,11.94
2019-02-19T03:45:03.402Z,11.72
2019-02-19T03:46:12.566Z,14.24
2019-02-19T03:47:03.205Z,11.56
2019-02-19T03:48:03.479Z,13.76
2019-02-19T03:49:02.928Z,12.86
2019-02-19T03:50:03.346Z,12.4
2019-02-19T03:51:02.773Z,12.42
2019-02-19T03:52:03.255Z,11.92
2019-02-19T03:53:02.853Z,11.25
2019-02-19T03:54:03.715Z,11.29
2019-02-19T03:55:02.934Z,13.64
2019-02-19T03:56:03.246Z,12.84
2019-02-19T03:57:03.265Z,11.11
2019-02-19T03:58:02.895Z,11.88
2019-02-19T03:59:03.327Z,12.21
2019-02-19T04:00:03.578Z,10.99
2019-02-19T04:01:03.118Z,11.92
2019-02-19T04:02:03.368Z,11.46
2019-02-19T04:03:02.867Z,12.09
2019-02-19T04:04:03.415Z,12.24
2019-02-19T04:05:03.071Z,11.68
2019-02-19T04:06:03.367Z,11.49
2019-02-19T04:07:03.629Z,11.08
2019-02-19T04:08:03.095Z,12.84
2019-02-19T04:09:03.658Z,12.44
2019-02-19T04:10:03.135Z,12.47
2019-02-19T04:11:03.565Z,11.49
2019-02-19T04:12:02.966Z,12.69
2019-02-19T04:13:03.533Z,12.37
2019-02-19T04:14:03.183Z,11.79
2019-02-19T04:15:03.505Z,12.19
2019-02-19T04:16:02.721Z,12.04
2019-02-19T04:17:03.589Z,11.58
2019-02-19T04:18:02.953Z,11.39
2019-02-19T04:19:03.822Z,13.88
2019-02-19T04:20:03.649Z,11.38
2019-02-19T04:21:03.261Z,10.78
2019-02-19T04:22:03.616Z,11.83
2019-02-19T04:23:03.267Z,11.94
2019-02-19T04:24:03.692Z,11.61
2019-02-19T04:25:03.283Z,11.91
2019-02-19T04:26:02.953Z,10.41
2019-02-19T04:27:03.132Z,10.41
2019-02-19T04:28:03.351Z,10.85
2019-02-19T04:29:03.145Z,10.85
2019-02-19T04:30:02.820Z,11.29
2019-02-19T04:31:03.328Z,10.92
2019-02-19T04:32:03.446Z,11.27
2019-02-19T04:33:03.028Z,10.06
2019-02-19T04:34:03.548Z,10.06
2019-02-19T04:35:03.133Z,11.34
2019-02-19T04:36:03.395Z,10.79
2019-02-19T04:37:03.030Z,10.92
2019-02-19T04:38:03.462Z,11.66
2019-02-19T04:39:03.113Z,12.01
2019-02-19T04:40:03.741Z,10.89
2019-02-19T04:41:02.875Z,10.64
2019-02-19T04:42:03.215Z,11.44
2019-02-19T04:43:03.633Z,11.63
2019-02-19T04:44:03.361Z,10.51
2019-02-19T04:45:03.771Z,11.91
2019-02-19T04:46:03.013Z,11.27
2019-02-19T04:47:03.255Z,11.15
2019-02-19T04:48:03.019Z,10.05
2019-02-19T04:49:03.399Z,10.49
2019-02-19T04:50:03.017Z,9.96
2019-02-19T04:51:03.101Z,9.39
2019-02-19T04:52:02.841Z,9.64
2019-02-19T04:53:03.354Z,10.15
2019-02-19T04:54:02.924Z,10.68
2019-02-19T04:55:03.278Z,9.98
2019-02-19T04:56:02.772Z,9.54
2019-02-19T04:57:03.199Z,9.76
2019-02-19T04:58:02.843Z,9.99
2019-02-19T04:59:03.324Z,10.63
2019-02-19T05:00:02.833Z,10.56
2019-02-19T05:01:03.015Z,10.44
2019-02-19T05:02:03.463Z,10.8
2019-02-19T05:03:03.121Z,9.36
2019-02-19T05:04:03.505Z,10.09
2019-02-19T05:05:02.970Z,9.72
2019-02-19T05:06:03.277Z,9.64
2019-02-19T05:07:02.996Z,9.5
2019-02-19T05:08:03.589Z,8.76
2019-02-19T05:09:03.605Z,9.59
2019-02-19T05:10:03.555Z,9.52
2019-02-19T05:11:02.839Z,9.21
2019-02-19T05:12:02.998Z,8.81
2019-02-19T05:13:03.514Z,8.64
2019-02-19T05:14:02.963Z,8.86
2019-02-19T05:15:02.948Z,8.86
2019-02-19T05:16:03.148Z,9.12
2019-02-19T05:17:03.437Z,9.09
2019-02-19T05:18:03.139Z,9.09
2019-02-19T05:19:03.526Z,8.62
2019-02-19T05:20:02.936Z,8.62
2019-02-19T05:21:03.329Z,8.82
2019-02-19T05:22:03.694Z,8.45
2019-02-19T05:23:03.032Z,8.08
2019-02-19T05:24:03.436Z,8.86
2019-02-19T05:25:02.942Z,8.25
2019-02-19T05:26:03.713Z,8.36
2019-02-19T05:27:03.101Z,7.95
2019-02-19T05:28:03.617Z,8.63
2019-02-19T05:29:03.208Z,8.51
2019-02-19T05:30:03.532Z,8.31
2019-02-19T05:31:03.208Z,9.43
2019-02-19T05:32:03.574Z,8.45
2019-02-19T05:33:02.892Z,7.45
2019-02-19T05:34:03.205Z,8.85
2019-02-19T05:35:03.630Z,8.99
2019-02-19T05:36:02.769Z,8.4
2019-02-19T05:37:03.207Z,8.14
2019-02-19T05:38:03.125Z,8.71
2019-02-19T05:39:03.632Z,8.22
2019-02-19T05:40:03.317Z,8.28
2019-02-19T05:41:03.588Z,8.29
2019-02-19T05:42:03.247Z,8.52
2019-02-19T05:43:03.624Z,8.61
2019-02-19T05:44:03.045Z,8.51
2019-02-19T05:45:03.636Z,8.39
2019-02-19T05:46:03.142Z,8.28
2019-02-19T05:47:03.423Z,8.57
2019-02-19T05:48:05.449Z,8.14
2019-02-19T05:49:03.343Z,8.09
2019-02-19T05:50:02.890Z,9.35
2019-02-19T05:51:03.136Z,9.42
2019-02-19T05:52:03.024Z,8.66
2019-02-19T05:53:03.681Z,8.35
2019-02-19T05:54:03.117Z,8.63
2019-02-19T05:55:03.536Z,9.84
2019-02-19T05:56:02.779Z,9.81
2019-02-19T05:57:03.491Z,8.75
2019-02-19T05:58:02.828Z,9.18
2019-02-19T05:59:02.991Z,8.99
2019-02-19T06:00:02.908Z,8.89
2019-02-19T06:01:02.982Z,8.36
2019-02-19T06:02:03.512Z,9.51
2019-02-19T06:03:02.640Z,9.79
2019-02-19T06:04:03.552Z,9.26
2019-02-19T06:05:02.937Z,8.42
2019-02-19T06:06:03.215Z,8.42
2019-02-19T06:07:02.781Z,9.36
2019-02-19T06:08:03.364Z,9.04
2019-02-19T06:09:03.532Z,9.04
2019-02-19T06:10:03.276Z,9.08
2019-02-19T06:11:03.554Z,9.08
2019-02-19T06:12:03.017Z,8.71
2019-02-19T06:13:02.789Z,10.38
2019-02-19T06:14:03.015Z,9.32
2019-02-19T06:15:03.365Z,9.69
2019-02-19T06:16:03.053Z,9.81
2019-02-19T06:17:03.159Z,9.31
2019-02-19T06:18:03.614Z,9.65
2019-02-19T06:19:03.247Z,8.92
2019-02-19T06:20:02.802Z,8.97
2019-02-19T06:21:03.108Z,8.66
2019-02-19T06:22:03.786Z,8.92
2019-02-19T06:23:03.343Z,9.4
2019-02-19T06:24:02.639Z,9.81
2019-02-19T06:25:03.313Z,9.81
2019-02-19T06:26:03.424Z,9.55
2019-02-19T06:27:02.812Z,11.08
2019-02-19T06:28:03.505Z,10.11
2019-02-19T06:29:02.784Z,10.26
2019-02-19T06:30:03.607Z,10.62
2019-02-19T06:31:03.182Z,9.36
2019-02-19T06:32:03.442Z,10.23
2019-02-19T06:33:02.825Z,11.32
2019-02-19T06:34:03.428Z,9.98
2019-02-19T06:35:03.279Z,10.95
2019-02-19T06:36:03.395Z,10.4
2019-02-19T06:37:02.973Z,9.56
2019-02-19T06:38:03.203Z,9.58
2019-02-19T06:39:03.479Z,10.49
2019-02-19T06:40:03.131Z,10.4
2019-02-19T06:41:03.326Z,10.4
2019-02-19T06:42:02.849Z,10.09
2019-02-19T06:43:03.435Z,10.22
2019-02-19T06:44:02.847Z,10.11
2019-02-19T06:45:03.537Z,10.2
2019-02-19T06:46:03.015Z,9.57
2019-02-19T06:47:07.253Z,10.18
2019-02-19T06:48:02.790Z,11.04
2019-02-19T06:49:03.237Z,10.49
2019-02-19T06:50:02.966Z,10.06
2019-02-19T06:51:02.971Z,9.91
2019-02-19T06:52:03.757Z,10.01
2019-02-19T06:53:02.831Z,10.11
2019-02-19T06:54:02.659Z,10.09
2019-02-19T06:55:03.193Z,10.09
2019-02-19T06:56:02.621Z,9.67
2019-02-19T06:57:02.971Z,9.67
2019-02-19T06:58:03.674Z,10.45
2019-02-19T06:59:03.125Z,10.45
2019-02-19T07:00:03.787Z,10.07
2019-02-19T07:01:03.119Z,8.38
2019-02-19T07:02:02.865Z,8.38
2019-02-19T07:03:03.276Z,9.94
2019-02-19T07:04:02.821Z,10.7
2019-02-19T07:05:03.045Z,9.33
2019-02-19T07:06:02.841Z,9.65
2019-02-19T07:07:02.884Z,10.71
2019-02-19T07:08:03.596Z,10.17
2019-02-19T07:09:02.975Z,10.15
2019-02-19T07:10:03.462Z,10.22
2019-02-19T07:11:02.884Z,10.78
2019-02-19T07:12:03.762Z,9.98
2019-02-19T07:13:03.148Z,10.64
2019-02-19T07:14:03.249Z,11.52
2019-02-19T07:15:03.088Z,10.96
2019-02-19T07:16:03.501Z,11.76
2019-02-19T07:17:03.626Z,11.15
2019-02-19T07:18:03.334Z,11.13
2019-02-19T07:19:02.747Z,10.75
2019-02-19T07:20:03.271Z,11.03
2019-02-19T07:21:02.826Z,10.24
2019-02-19T07:22:03.208Z,10.71
2019-02-19T07:23:02.791Z,11.82
2019-02-19T07:24:04.843Z,9.62
2019-02-19T07:25:03.439Z,10.05
2019-02-19T07:26:03.061Z,9.58
2019-02-19T07:27:03.469Z,10.63
2019-02-19T07:28:02.882Z,10.09
2019-02-19T07:29:03.474Z,9.35
2019-02-19T07:30:03.701Z,10.52
2019-02-19T07:31:03.053Z,10.01
2019-02-19T07:32:02.991Z,9.48
2019-02-19T07:33:03.555Z,10.12
2019-02-19T07:34:02.827Z,10
2019-02-19T07:35:03.391Z,10.06
2019-02-19T07:36:02.747Z,10.8
2019-02-19T07:37:03.171Z,10.39
2019-02-19T07:38:03.620Z,11.96
2019-02-19T07:39:03.119Z,11.15
2019-02-19T07:40:02.910Z,9.73
2019-02-19T07:41:03.228Z,10.25
2019-02-19T07:42:03.562Z,11.03
2019-02-19T07:43:03.227Z,9.66
2019-02-19T07:44:03.212Z,9.78
2019-02-19T07:45:03.270Z,9.91
2019-02-19T07:46:02.893Z,9.91
2019-02-19T07:47:03.304Z,11.11
2019-02-19T07:48:03.463Z,10.37
2019-02-19T07:49:03.014Z,10.37
2019-02-19T07:50:03.773Z,10.85
2019-02-19T07:51:02.767Z,10.65
2019-02-19T07:52:03.399Z,10.65
2019-02-19T07:53:02.926Z,10.76
2019-02-19T07:54:03.445Z,12.12
2019-02-19T07:55:02.860Z,10.85
2019-02-19T07:56:03.191Z,9.72
2019-02-19T07:57:03.593Z,11
2019-02-19T07:58:03.117Z,9.96
2019-02-19T07:59:03.744Z,11.41
2019-02-19T08:00:03.043Z,10.64
2019-02-19T08:01:03.535Z,10.88
2019-02-19T08:02:03.768Z,11.51
2019-02-19T08:03:05.154Z,10.79
2019-02-19T08:04:02.829Z,11.24
2019-02-19T08:05:03.486Z,10.16
2019-02-19T08:06:03.469Z,10.13
2019-02-19T08:07:03.114Z,10.88
2019-02-19T08:08:03.544Z,9.99
2019-02-19T08:09:03.184Z,11.05
2019-02-19T08:10:03.738Z,9.69
2019-02-19T08:11:03.179Z,12
2019-02-19T08:12:03.652Z,10.76
2019-02-19T08:13:03.211Z,11.94
2019-02-19T08:14:03.722Z,11.13
2019-02-19T08:15:03.037Z,11.69
2019-02-19T08:16:03.195Z,10.58
2019-02-19T08:17:02.860Z,10.03
2019-02-19T08:18:03.396Z,10.44
2019-02-19T08:19:03.790Z,11.6
2019-02-19T08:20:03.598Z,10.17
2019-02-19T08:21:02.639Z,9.43
2019-02-19T08:22:03.225Z,11.16
2019-02-19T08:23:02.745Z,10.68
2019-02-19T08:24:03.314Z,10.25
2019-02-19T08:25:03.012Z,11.08
2019-02-19T08:26:03.033Z,10.54
2019-02-19T08:27:02.773Z,10.18
2019-02-19T08:28:03.313Z,10.28
2019-02-19T08:29:13.971Z,10.46
2019-02-19T08:30:03.562Z,10.78
2019-02-19T08:31:02.955Z,10.46
2019-02-19T08:32:03.456Z,10.38
2019-02-19T08:33:03.771Z,10.53
2019-02-19T08:34:03.058Z,10.58
2019-02-19T08:35:02.979Z,11.25
2019-02-19T08:36:03.083Z,10.02
2019-02-19T08:37:03.062Z,10.02
2019-02-19T08:38:03.191Z,10.21
2019-02-19T08:39:03.503Z,10.21
2019-02-19T08:40:02.910Z,10
2019-02-19T08:41:03.469Z,11.33
2019-02-19T08:42:02.660Z,10.08
2019-02-19T08:43:03.297Z,9.44
2019-02-19T08:44:03.472Z,10.69
2019-02-19T08:45:03.176Z,11.04
2019-02-19T08:46:03.252Z,9.85
2019-02-19T08:47:03.284Z,9.68
2019-02-19T08:48:03.571Z,9.82
2019-02-19T08:49:03.422Z,10.06
2019-02-19T08:50:03.600Z,11.21
2019-02-19T08:51:02.985Z,11.21
2019-02-19T08:52:03.377Z,10.71
2019-02-19T08:53:02.849Z,10.37
2019-02-19T08:54:03.076Z,9.58
2019-02-19T08:55:02.811Z,10.93
2019-02-19T08:56:02.913Z,9.96
2019-02-19T08:57:03.404Z,11.14
2019-02-19T08:58:02.818Z,10.33
2019-02-19T08:59:03.346Z,11.91
2019-02-19T09:00:02.800Z,10.79
2019-02-19T09:01:03.029Z,10.02
2019-02-19T09:02:02.939Z,10.64
2019-02-19T09:03:03.213Z,10.64
2019-02-19T09:04:03.442Z,10.43
2019-02-19T09:05:03.452Z,10.79
2019-02-19T09:06:03.407Z,11.18
2019-02-19T09:07:02.941Z,9.94
2019-02-19T09:08:03.833Z,11.22
2019-02-19T09:09:03.060Z,10.64
2019-02-19T09:10:02.846Z,11.34
2019-02-19T09:11:03.054Z,11.42
2019-02-19T09:12:03.748Z,11.91
2019-02-19T09:13:03.066Z,11.18
2019-02-19T09:14:03.298Z,11.72
2019-02-19T09:15:02.873Z,10.65
2019-02-19T09:16:03.100Z,12.02
2019-02-19T09:17:03.593Z,11.14
2019-02-19T09:18:02.832Z,11.13
2019-02-19T09:19:03.487Z,11.85
2019-02-19T09:20:02.934Z,11.22
2019-02-19T09:21:03.560Z,10.58
2019-02-19T09:22:02.639Z,11.18
2019-02-19T09:23:03.311Z,11.64
2019-02-19T09:24:09.897Z,13.15
2019-02-19T09:25:03.519Z,15.36
2019-02-19T09:26:02.741Z,12.45
2019-02-19T09:27:03.378Z,12.45
2019-02-19T09:28:03.323Z,11.09
2019-02-19T09:29:02.955Z,11.2
2019-02-19T09:30:03.516Z,11.2
2019-02-19T09:31:03.078Z,11.69
2019-02-19T09:32:03.530Z,10.96
2019-02-19T09:33:03.202Z,10.96
2019-02-19T09:34:03.341Z,10.84
2019-02-19T09:35:02.928Z,10.94
2019-02-19T09:36:03.330Z,10.59
2019-02-19T09:37:02.847Z,10.44
2019-02-19T09:38:03.134Z,11.66
2019-02-19T09:39:02.700Z,11.42
2019-02-19T09:40:03.109Z,11.09
2019-02-19T09:41:03.501Z,11.54
2019-02-19T09:42:03.754Z,11.26
2019-02-19T09:43:03.401Z,11.78
2019-02-19T09:44:03.719Z,10.88
2019-02-19T09:45:03.156Z,11.16
2019-02-19T09:46:02.891Z,12.36
2019-02-19T09:47:03.155Z,11.26
2019-02-19T09:48:03.275Z,10.92
2019-02-19T09:49:03.393Z,11.34
2019-02-19T09:50:03.170Z,11.19
2019-02-19T09:51:03.803Z,10.67
2019-02-19T09:52:02.904Z,11.32
2019-02-19T09:53:03.671Z,10.86
2019-02-19T09:54:03.163Z,10.97
2019-02-19T09:55:03.512Z,10.99
2019-02-19T09:56:02.846Z,11.31
2019-02-19T09:57:03.326Z,11.3
2019-02-19T09:58:03.048Z,11.94
2019-02-19T09:59:03.416Z,12.48
2019-02-19T10:00:03.129Z,11.5
2019-02-19T10:01:02.904Z,11.65
2019-02-19T10:02:03.691Z,10.49
2019-02-19T10:03:03.294Z,12.62
2019-02-19T10:04:02.677Z,12.97
2019-02-19T10:05:03.505Z,11.56
2019-02-19T10:06:02.744Z,11.62
2019-02-19T10:07:03.457Z,13.06
2019-02-19T10:08:02.885Z,11.52
2019-02-19T10:09:03.375Z,12.43
2019-02-19T10:10:03.734Z,12.06
2019-02-19T10:11:03.177Z,12.08
2019-02-19T10:12:02.794Z,12.45
2019-02-19T10:13:03.273Z,11.65
2019-02-19T10:14:03.468Z,11.53
2019-02-19T10:15:03.792Z,11.29
2019-02-19T10:16:03.534Z,11.05
2019-02-19T10:17:03.227Z,11.78
2019-02-19T10:18:10.646Z,11.78
2019-02-19T10:19:02.637Z,11.62
2019-02-19T10:20:03.254Z,12.48
2019-02-19T10:21:03.656Z,12.48
2019-02-19T10:22:03.004Z,12.41
2019-02-19T10:23:03.239Z,11.46
2019-02-19T10:24:02.799Z,11.46
2019-02-19T10:25:03.694Z,12.29
2019-02-19T10:26:03.728Z,13.12
2019-02-19T10:27:03.007Z,12.05
2019-02-19T10:28:03.395Z,11.11
2019-02-19T10:29:03.284Z,12.4
2019-02-19T10:30:03.726Z,12
2019-02-19T10:31:03.113Z,12.08
2019-02-19T10:32:03.557Z,12.89
2019-02-19T10:33:03.803Z,11.39
2019-02-19T10:34:03.289Z,12.48
2019-02-19T10:35:02.982Z,10.56
2019-02-19T10:36:03.452Z,11.68
2019-02-19T10:37:02.695Z,12.15
2019-02-19T10:38:03.327Z,12.34
2019-02-19T10:39:03.289Z,12.4
2019-02-19T10:40:03.374Z,12.35
2019-02-19T10:41:02.861Z,12.48
2019-02-19T10:42:02.978Z,12.12
2019-02-19T10:43:03.563Z,11.28
2019-02-19T10:44:02.749Z,12.02
2019-02-19T10:45:03.436Z,13.26
2019-02-19T10:46:02.943Z,11.37
2019-02-19T10:47:03.549Z,11.56
2019-02-19T10:48:02.767Z,11.71
2019-02-19T10:49:03.552Z,11.52
2019-02-19T10:50:03.118Z,11.02
2019-02-19T10:51:03.196Z,11.65
2019-02-19T10:52:02.840Z,11.08
2019-02-19T10:53:03.250Z,11.44
2019-02-19T10:54:03.762Z,12.03
2019-02-19T10:55:03.594Z,11.95
2019-02-19T10:56:03.611Z,10.8
2019-02-19T10:57:03.161Z,12.4
2019-02-19T10:58:03.633Z,12.82
2019-02-19T10:59:03.154Z,10.29
2019-02-19T11:00:03.508Z,10.81
2019-02-19T11:01:03.413Z,11.75
2019-02-19T11:02:03.711Z,10.86
2019-02-19T11:03:03.434Z,11.48
2019-02-19T11:04:03.553Z,11.57
2019-02-19T11:05:03.109Z,10.36
2019-02-19T11:06:03.788Z,11.12
2019-02-19T11:07:03.102Z,11.12
2019-02-19T11:08:03.458Z,10.86
2019-02-19T11:09:03.300Z,12.55
2019-02-19T11:10:03.557Z,12.11
2019-02-19T11:11:02.945Z,10.59
2019-02-19T11:12:02.861Z,10.66
2019-02-19T11:13:03.679Z,11.02
2019-02-19T11:14:03.430Z,10.89
2019-02-19T11:15:03.714Z,11.16
2019-02-19T11:16:03.550Z,10.34
2019-02-19T11:17:03.127Z,11.49
2019-02-19T11:18:03.919Z,11.05
2019-02-19T11:19:03.169Z,11.28
2019-02-19T11:20:03.611Z,11.17
2019-02-19T11:21:03.032Z,10.66
2019-02-19T11:22:02.904Z,11.82
2019-02-19T11:23:03.404Z,10.32
2019-02-19T11:24:03.003Z,10.58
2019-02-19T11:25:03.334Z,10.86
2019-02-19T11:26:02.788Z,11.08
2019-02-19T11:27:03.416Z,10.09
2019-02-19T11:28:02.808Z,10.13
2019-02-19T11:29:03.553Z,9.8
2019-02-19T11:30:02.797Z,9.36
2019-02-19T11:31:03.529Z,10.25
2019-02-19T11:32:02.787Z,9.93
2019-02-19T11:33:03.559Z,9.82
2019-02-19T11:34:03.641Z,9.72
2019-02-19T11:35:03.226Z,9.68
2019-02-19T11:36:03.542Z,10.32
2019-02-19T11:37:03.225Z,10.32
2019-02-19T11:38:03.493Z,10.72
2019-02-19T11:39:03.072Z,10.32
2019-02-19T11:40:03.227Z,9.89
2019-02-19T11:41:03.842Z,10.97
2019-02-19T11:42:04.936Z,10.9
2019-02-19T11:43:03.731Z,11.05
2019-02-19T11:44:03.397Z,10.34
2019-02-19T11:45:02.860Z,13.15
2019-02-19T11:46:03.178Z,11.45
2019-02-19T11:47:03.484Z,12.56
2019-02-19T11:48:03.113Z,9.62
2019-02-19T11:49:02.707Z,10.03
2019-02-19T11:50:03.173Z,10.35
2019-02-19T11:51:02.809Z,10.35
2019-02-19T11:52:03.002Z,10.43
2019-02-19T11:53:03.233Z,9.53
2019-02-19T11:54:03.097Z,9.53
2019-02-19T11:55:03.452Z,10.21
2019-02-19T11:56:02.717Z,10.21
2019-02-19T11:57:03.055Z,9.32
2019-02-19T11:58:03.690Z,9.32
2019-02-19T11:59:03.095Z,9.21
2019-02-19T12:00:03.398Z,9.11
2019-02-19T12:01:02.890Z,9.11
2019-02-19T12:02:03.308Z,9.39
2019-02-19T12:03:03.344Z,10.26
2019-02-19T12:04:02.807Z,9.76
2019-02-19T12:05:03.369Z,9.16
2019-02-19T12:06:03.526Z,9.92
2019-02-19T12:07:02.800Z,9.51
2019-02-19T12:08:03.807Z,9.6
2019-02-19T12:09:02.892Z,9.94
2019-02-19T12:10:03.831Z,9.73
2019-02-19T12:11:03.097Z,10.32
2019-02-19T12:12:03.503Z,10
2019-02-19T12:13:03.524Z,9.5
2019-02-19T12:14:02.937Z,9.44
2019-02-19T12:15:03.761Z,8.44
2019-02-19T12:16:03.351Z,9.45
2019-02-19T12:17:02.916Z,9.47
2019-02-19T12:18:03.002Z,9.11
2019-02-19T12:19:03.630Z,9.19
2019-02-19T12:20:02.847Z,9.2
2019-02-19T12:21:03.126Z,9.21
2019-02-19T12:22:02.971Z,9.74
2019-02-19T12:23:03.411Z,9.25
2019-02-19T12:24:03.561Z,9.16
2019-02-19T12:25:02.725Z,9.62
2019-02-19T12:26:03.387Z,9.05
2019-02-19T12:27:03.668Z,9.41
2019-02-19T12:28:03.218Z,9.92
2019-02-19T12:29:02.966Z,7.72
2019-02-19T12:30:03.355Z,8.99
2019-02-19T12:31:03.572Z,8.79
2019-02-19T12:32:03.140Z,8.11
2019-02-19T12:33:02.645Z,8.64
2019-02-19T12:34:03.285Z,9.1
2019-02-19T12:35:03.607Z,8.09
2019-02-19T12:36:03.131Z,8.24
2019-02-19T12:37:03.604Z,8.62
2019-02-19T12:38:02.849Z,8.48
2019-02-19T12:39:03.292Z,7.64
2019-02-19T12:40:03.145Z,8.38
2019-02-19T12:41:03.463Z,8.51
2019-02-19T12:42:02.912Z,7.79
2019-02-19T12:43:03.117Z,8.32
2019-02-19T12:44:03.022Z,8.32
2019-02-19T12:45:03.112Z,8.32
2019-02-19T12:46:03.064Z,7.66
2019-02-19T12:47:03.182Z,7.66
2019-02-19T12:48:02.961Z,8.01
2019-02-19T12:49:03.384Z,8.28
2019-02-19T12:50:02.928Z,8.38
2019-02-19T12:51:03.171Z,7.91
2019-02-19T12:52:03.623Z,7.85
2019-02-19T12:53:02.808Z,8.21
2019-02-19T12:54:03.587Z,7.98
2019-02-19T12:55:03.027Z,8.25
2019-02-19T12:56:03.751Z,7.92
2019-02-19T12:57:03.556Z,7.52
2019-02-19T12:58:03.108Z,7.85
2019-02-19T12:59:02.824Z,8.36
2019-02-19T13:00:03.366Z,7.82